Time;durP1;ratioP1;P1;durP2;ratioP2;P2;SDS_P1;SDS_P2;PMS_P1;PMS_P2;Temp;Humidity;BMP_temperature;BMP_pressure;BME280_temperature;BME280_humidity;BME280_pressure;Samples;Min_cycle;Max_cycle;Signal;HPM_P1;HPM_P2
2021/09/09 00:00:44;;;;;;;10.85;9.88;;;19.70;99.90;;;;;;2079796;28;20040;-69
2021/09/09 00:01:44;;;;;;;13.05;10.32;;;19.70;99.90;;;;;;2080477;28;20495;-69
2021/09/09 00:02:45;;;;;;;14.07;10.77;;;19.70;99.90;;;;;;2081820;28;20108;-69
2021/09/09 00:03:45;;;;;;;12.98;10.45;;;19.70;99.90;;;;;;2088403;28;20037;-69
2021/09/09 00:04:46;;;;;;;12.45;11.13;;;19.70;99.90;;;;;;2081306;28;20383;-69
2021/09/09 00:05:47;;;;;;;11.63;10.40;;;19.70;99.90;;;;;;2080993;28;20036;-69
2021/09/09 00:06:48;;;;;;;12.82;10.52;;;19.70;99.90;;;;;;2081157;28;20493;-69
2021/09/09 00:07:48;;;;;;;14.05;10.77;;;19.60;99.90;;;;;;2080361;28;20402;-69
2021/09/09 00:08:49;;;;;;;11.25;10.10;;;19.70;99.90;;;;;;2080573;28;20036;-69
2021/09/09 00:09:49;;;;;;;11.98;10.68;;;19.70;99.90;;;;;;2080969;28;20467;-69
2021/09/09 00:10:50;;;;;;;17.05;11.30;;;19.60;99.90;;;;;;2081138;28;20071;-69
2021/09/09 00:11:51;;;;;;;11.65;10.55;;;19.60;99.90;;;;;;2080927;28;20022;-69
2021/09/09 00:12:51;;;;;;;11.55;10.45;;;19.60;99.90;;;;;;2082729;28;20053;-69
2021/09/09 00:13:52;;;;;;;11.55;9.98;;;19.60;99.90;;;;;;2084641;28;20104;-69
2021/09/09 00:14:53;;;;;;;14.27;10.98;;;19.60;99.90;;;;;;2080525;28;20135;-69
2021/09/09 00:15:53;;;;;;;11.48;10.18;;;19.60;99.90;;;;;;2080901;28;20041;-69
2021/09/09 00:16:54;;;;;;;12.23;10.10;;;19.60;99.90;;;;;;2080761;28;20025;-69
2021/09/09 00:17:55;;;;;;;11.50;10.30;;;19.60;99.90;;;;;;2081124;28;20025;-69
2021/09/09 00:18:56;;;;;;;11.48;10.43;;;19.60;99.90;;;;;;2080857;28;20384;-69
2021/09/09 00:19:56;;;;;;;12.10;10.88;;;19.60;99.90;;;;;;2081126;28;20355;-69
2021/09/09 00:20:57;;;;;;;12.15;10.98;;;19.60;99.90;;;;;;2080897;28;20018;-69
2021/09/09 00:21:57;;;;;;;12.50;11.25;;;19.60;99.90;;;;;;2084423;28;20434;-69
2021/09/09 00:22:58;;;;;;;11.88;10.52;;;19.60;99.90;;;;;;2080893;28;20057;-69
2021/09/09 00:23:59;;;;;;;14.43;11.55;;;19.60;99.90;;;;;;2080392;28;20071;-69
2021/09/09 00:24:59;;;;;;;11.82;10.63;;;19.60;99.90;;;;;;2080071;28;20025;-69
2021/09/09 00:26:03;;;;;;;17.23;10.57;;;19.60;99.90;;;;;;2080886;28;20035;-69
2021/09/09 00:27:04;;;;;;;13.50;11.10;;;19.60;99.90;;;;;;2080745;28;20029;-69
2021/09/09 00:28:05;;;;;;;12.88;11.68;;;19.60;99.90;;;;;;2080191;28;20021;-69
2021/09/09 00:29:05;;;;;;;11.77;10.63;;;19.60;99.90;;;;;;2080393;28;20498;-69
2021/09/09 00:30:07;;;;;;;12.82;10.48;;;19.60;99.90;;;;;;2081118;28;20032;-69
2021/09/09 00:31:08;;;;;;;13.38;11.00;;;19.60;99.90;;;;;;2081242;28;20129;-69
2021/09/09 00:32:08;;;;;;;12.23;10.98;;;19.60;99.90;;;;;;2081256;28;20025;-69
2021/09/09 00:33:09;;;;;;;12.05;10.88;;;19.50;99.90;;;;;;2083828;28;20025;-69
2021/09/09 00:34:09;;;;;;;11.85;10.75;;;19.50;99.90;;;;;;2084964;28;20476;-69
2021/09/09 00:35:11;;;;;;;11.95;10.85;;;19.50;99.90;;;;;;2089136;28;20428;-69
2021/09/09 00:36:12;;;;;;;11.15;10.15;;;19.50;99.90;;;;;;2085333;28;20160;-69
2021/09/09 00:37:12;;;;;;;11.68;10.48;;;19.50;99.90;;;;;;2081016;28;20086;-69
2021/09/09 00:38:13;;;;;;;12.57;11.25;;;19.50;99.90;;;;;;2081113;28;20083;-69
2021/09/09 00:39:13;;;;;;;12.05;10.90;;;19.50;99.90;;;;;;2079817;28;20700;-69
2021/09/09 00:40:14;;;;;;;11.77;10.25;;;19.50;99.90;;;;;;2082264;28;20386;-69
2021/09/09 00:41:15;;;;;;;11.90;10.70;;;19.50;99.90;;;;;;2084053;28;20033;-69
2021/09/09 00:42:16;;;;;;;11.25;10.15;;;19.50;99.90;;;;;;2088537;28;20017;-69
2021/09/09 00:43:16;;;;;;;11.30;10.07;;;19.50;99.90;;;;;;2084728;28;20148;-69
2021/09/09 00:44:27;;;;;;;12.25;11.05;;;19.50;99.90;;;;;;2084760;28;20033;-69
2021/09/09 00:45:27;;;;;;;;;;;19.50;99.90;;;;;;2081595;28;20060;-69
2021/09/09 00:46:29;;;;;;;11.73;10.00;;;19.40;99.90;;;;;;2080723;28;19928;-69
2021/09/09 00:47:29;;;;;;;11.10;10.00;;;19.40;99.90;;;;;;2080714;28;20024;-69
2021/09/09 00:48:31;;;;;;;11.18;10.18;;;19.40;99.90;;;;;;2081185;28;20022;-69
2021/09/09 00:49:34;;;;;;;12.65;11.35;;;19.40;99.90;;;;;;2080724;28;20037;-69
2021/09/09 00:50:34;;;;;;;12.60;11.27;;;19.40;99.90;;;;;;2081122;28;20030;-69
2021/09/09 00:51:35;;;;;;;11.43;10.40;;;19.40;99.90;;;;;;2083854;28;20590;-69
2021/09/09 00:52:36;;;;;;;11.32;10.10;;;19.40;99.90;;;;;;2083650;28;20104;-69
2021/09/09 00:53:38;;;;;;;12.45;11.15;;;19.30;99.90;;;;;;2080762;28;20026;-69
2021/09/09 00:54:41;;;;;;;11.50;10.40;;;19.30;99.90;;;;;;2079986;28;20030;-69
2021/09/09 00:55:42;;;;;;;11.68;10.57;;;19.30;99.90;;;;;;2080096;28;20501;-69
2021/09/09 00:56:42;;;;;;;11.50;10.48;;;19.30;99.90;;;;;;2081013;28;20551;-69
2021/09/09 00:57:45;;;;;;;11.02;9.90;;;19.30;99.90;;;;;;2080618;28;20025;-69
2021/09/09 00:58:45;;;;;;;13.20;11.27;;;19.30;99.90;;;;;;2080641;28;20083;-69
2021/09/09 00:59:47;;;;;;;11.80;10.70;;;19.20;99.90;;;;;;2080696;28;20079;-69
2021/09/09 01:00:48;;;;;;;13.25;11.57;;;19.20;99.90;;;;;;2080852;28;20032;-69
2021/09/09 01:01:49;;;;;;;13.60;11.63;;;19.20;99.90;;;;;;2085073;28;20386;-69
2021/09/09 01:02:49;;;;;;;12.68;11.48;;;19.20;99.90;;;;;;2080368;28;20040;-69
2021/09/09 01:03:51;;;;;;;12.40;11.23;;;19.20;99.90;;;;;;2080536;28;20041;-69
2021/09/09 01:04:51;;;;;;;12.80;11.20;;;19.10;99.90;;;;;;2080784;28;20172;-69
2021/09/09 01:05:52;;;;;;;12.70;11.50;;;19.10;99.90;;;;;;2080657;28;20029;-69
2021/09/09 01:06:54;;;;;;;11.77;10.57;;;19.10;99.90;;;;;;2080550;28;20021;-69
2021/09/09 01:07:55;;;;;;;12.15;11.05;;;19.10;99.90;;;;;;2080728;28;20457;-69
2021/09/09 01:08:55;;;;;;;12.38;11.18;;;19.10;99.90;;;;;;2080493;28;20036;-69
2021/09/09 01:09:58;;;;;;;12.30;11.23;;;19.00;99.90;;;;;;2080764;28;20151;-69
2021/09/09 01:10:59;;;;;;;12.60;11.57;;;19.00;99.90;;;;;;2080689;28;20484;-69
2021/09/09 01:12:00;;;;;;;11.80;10.70;;;19.00;99.90;;;;;;2082803;28;20047;-69
2021/09/09 01:13:01;;;;;;;14.65;10.90;;;19.00;99.90;;;;;;2080264;28;20021;-69
2021/09/09 01:14:10;;;;;;;12.40;11.15;;;19.00;99.90;;;;;;2080590;28;20053;-69
2021/09/09 01:15:11;;;;;;;13.23;12.05;;;19.00;99.90;;;;;;2080789;28;20362;-69
2021/09/09 01:16:11;;;;;;;12.95;11.60;;;18.90;99.90;;;;;;2080745;28;20109;-69
2021/09/09 01:17:12;;;;;;;12.60;11.32;;;18.90;99.90;;;;;;2080490;28;20461;-69
2021/09/09 01:18:14;;;;;;;11.55;10.48;;;18.90;99.90;;;;;;2080234;28;20049;-69
2021/09/09 01:19:16;;;;;;;11.93;10.73;;;18.90;99.90;;;;;;2080525;28;20022;-69
2021/09/09 01:20:17;;;;;;;12.25;10.95;;;18.80;99.90;;;;;;2080553;28;20032;-69
2021/09/09 01:21:17;;;;;;;12.82;11.52;;;18.80;99.90;;;;;;2081432;28;20026;-69
2021/09/09 01:22:18;;;;;;;12.55;11.35;;;18.80;99.90;;;;;;2088678;28;20044;-69
2021/09/09 01:23:19;;;;;;;12.18;10.88;;;18.80;99.90;;;;;;2084135;28;20049;-69
2021/09/09 01:24:21;;;;;;;13.82;11.68;;;18.70;99.90;;;;;;2080768;28;20021;-69
2021/09/09 01:25:22;;;;;;;12.93;11.63;;;18.70;99.90;;;;;;2080643;28;20021;-69
2021/09/09 01:26:24;;;;;;;12.98;11.20;;;18.70;99.90;;;;;;2080680;28;20116;-69
2021/09/09 01:27:25;;;;;;;12.15;10.93;;;18.70;99.90;;;;;;2080496;28;20411;-69
2021/09/09 01:28:25;;;;;;;12.50;11.13;;;18.70;99.90;;;;;;2080341;28;20018;-69
2021/09/09 01:29:29;;;;;;;12.38;11.10;;;18.60;99.90;;;;;;2080380;28;20041;-69
2021/09/09 01:30:30;;;;;;;13.55;12.18;;;18.60;99.90;;;;;;2094380;28;20036;-69
2021/09/09 01:31:31;;;;;;;13.13;11.90;;;18.60;99.90;;;;;;2087009;28;20381;-69
2021/09/09 01:32:32;;;;;;;12.93;11.63;;;18.60;99.90;;;;;;2096160;28;20064;-69
2021/09/09 01:33:32;;;;;;;12.07;10.95;;;18.50;99.90;;;;;;2080204;28;20032;-69
2021/09/09 01:34:33;;;;;;;14.85;11.57;;;18.50;99.90;;;;;;2084276;28;20305;-69
2021/09/09 01:35:34;;;;;;;12.88;11.40;;;18.50;99.90;;;;;;2088723;28;20551;-69
2021/09/09 01:36:50;;;;;;;14.55;11.75;;;18.50;99.90;;;;;;2088736;28;20029;-69
2021/09/09 01:37:51;;;;;;;12.82;11.63;;;18.50;99.90;;;;;;2085101;28;20032;-69
2021/09/09 01:38:52;;;;;;;12.60;11.40;;;18.40;99.90;;;;;;2088462;28;20036;-69
2021/09/09 01:39:55;;;;;;;12.45;11.20;;;18.40;99.90;;;;;;2088288;28;20068;-69
2021/09/09 01:40:56;;;;;;;11.98;10.77;;;18.40;99.90;;;;;;2089651;28;20031;-69
2021/09/09 01:41:58;;;;;;;13.52;11.00;;;18.40;99.90;;;;;;2085252;28;20067;-69
2021/09/09 01:43:00;;;;;;;12.68;10.70;;;18.40;99.90;;;;;;2082064;28;20078;-69
2021/09/09 01:44:00;;;;;;;12.65;11.40;;;18.30;99.90;;;;;;2080311;28;20021;-69
2021/09/09 01:45:01;;;;;;;13.50;12.20;;;18.30;99.90;;;;;;2080834;28;20067;-69
2021/09/09 01:46:01;;;;;;;13.32;11.98;;;18.30;99.90;;;;;;2079926;28;20022;-69
2021/09/09 01:47:02;;;;;;;14.07;11.35;;;18.30;99.90;;;;;;2080398;28;20544;-69
2021/09/09 01:48:03;;;;;;;11.65;10.60;;;18.30;99.90;;;;;;2080223;28;20076;-69
2021/09/09 01:49:04;;;;;;;11.95;10.75;;;18.30;99.90;;;;;;2079537;28;20155;-69
2021/09/09 01:50:05;;;;;;;13.70;11.98;;;18.20;99.90;;;;;;2079561;28;20017;-69
2021/09/09 01:51:06;;;;;;;12.35;11.23;;;18.20;99.90;;;;;;2080251;28;20116;-69
2021/09/09 01:52:07;;;;;;;11.85;10.68;;;18.20;99.90;;;;;;2085730;28;20468;-69
2021/09/09 01:53:08;;;;;;;14.65;12.70;;;18.10;99.90;;;;;;2081140;28;20420;-69
2021/09/09 01:54:08;;;;;;;12.70;11.50;;;18.10;99.90;;;;;;2080422;28;20047;-69
2021/09/09 01:55:09;;;;;;;13.32;11.95;;;18.10;99.90;;;;;;2080439;28;20022;-69
2021/09/09 01:56:10;;;;;;;13.07;11.85;;;18.10;99.90;;;;;;2080269;28;20025;-69
2021/09/09 01:57:10;;;;;;;14.52;12.57;;;18.10;99.90;;;;;;2080448;28;20021;-69
2021/09/09 01:58:11;;;;;;;13.32;12.02;;;18.10;99.90;;;;;;2080128;28;20032;-69
2021/09/09 01:59:12;;;;;;;12.18;11.00;;;18.00;99.90;;;;;;2080074;28;20104;-69
2021/09/09 02:00:13;;;;;;;14.25;11.70;;;18.00;99.90;;;;;;2080312;28;20080;-69
2021/09/09 02:01:15;;;;;;;12.60;11.23;;;18.00;99.90;;;;;;2080487;28;20393;-69
2021/09/09 02:02:15;;;;;;;12.45;11.15;;;18.00;99.90;;;;;;2081961;28;20033;-69
2021/09/09 02:03:16;;;;;;;13.90;11.95;;;18.00;99.90;;;;;;2079123;28;20627;-69
2021/09/09 02:04:16;;;;;;;12.13;10.90;;;18.00;99.90;;;;;;2079602;28;20021;-69
2021/09/09 02:05:17;;;;;;;12.60;11.40;;;17.90;99.90;;;;;;2080308;28;20025;-69
2021/09/09 02:06:18;;;;;;;14.32;11.73;;;17.90;99.90;;;;;;2080142;28;20097;-69
2021/09/09 02:07:18;;;;;;;12.50;11.20;;;17.90;99.90;;;;;;2080197;28;20029;-69
2021/09/09 02:08:19;;;;;;;12.25;11.02;;;17.90;99.90;;;;;;2079971;28;20071;-69
2021/09/09 02:09:19;;;;;;;12.32;11.13;;;17.90;99.90;;;;;;2080310;28;20112;-69
2021/09/09 02:10:20;;;;;;;12.35;11.15;;;17.80;99.90;;;;;;2080214;28;20515;-69
2021/09/09 02:11:21;;;;;;;12.90;11.60;;;17.80;99.90;;;;;;2080369;28;20017;-69
2021/09/09 02:12:21;;;;;;;19.92;11.63;;;17.80;99.90;;;;;;2080315;28;20053;-69
2021/09/09 02:13:22;;;;;;;13.63;11.88;;;17.80;99.90;;;;;;2079902;28;20398;-69
2021/09/09 02:14:22;;;;;;;12.60;11.38;;;17.80;99.90;;;;;;2080376;28;20063;-69
2021/09/09 02:15:23;;;;;;;12.63;11.32;;;17.70;99.90;;;;;;2080285;28;20029;-69
2021/09/09 02:16:24;;;;;;;12.55;11.23;;;17.70;99.90;;;;;;2079964;28;20034;-69
2021/09/09 02:17:24;;;;;;;14.13;12.73;;;17.70;99.90;;;;;;2080057;28;20717;-69
2021/09/09 02:18:25;;;;;;;13.07;11.73;;;17.70;99.90;;;;;;2079322;28;20397;-69
2021/09/09 02:19:26;;;;;;;13.13;10.93;;;17.70;99.90;;;;;;2079425;28;20048;-69
2021/09/09 02:20:26;;;;;;;13.27;11.85;;;17.60;99.90;;;;;;2080347;28;20105;-69
2021/09/09 02:21:27;;;;;;;12.93;11.73;;;17.60;99.90;;;;;;2080502;28;20486;-69
2021/09/09 02:22:28;;;;;;;12.18;10.55;;;17.60;99.90;;;;;;2088302;28;20086;-69
2021/09/09 02:23:28;;;;;;;13.30;12.07;;;17.60;99.90;;;;;;2081630;28;20796;-69
2021/09/09 02:24:29;;;;;;;11.75;10.63;;;17.60;99.90;;;;;;2078808;28;20053;-69
2021/09/09 02:25:29;;;;;;;13.60;12.20;;;17.60;99.90;;;;;;2071018;28;20686;-69
2021/09/09 02:26:30;;;;;;;13.45;12.18;;;17.60;99.90;;;;;;2080449;28;20021;-69
2021/09/09 02:27:30;;;;;;;13.95;12.35;;;17.50;99.90;;;;;;2088269;28;20029;-69
2021/09/09 02:28:31;;;;;;;13.80;12.32;;;17.50;99.90;;;;;;2080694;28;20021;-69
2021/09/09 02:29:32;;;;;;;13.95;12.48;;;17.50;99.90;;;;;;2079591;28;20037;-69
2021/09/09 02:30:33;;;;;;;13.98;12.57;;;17.50;99.90;;;;;;2080181;28;20124;-69
2021/09/09 02:31:33;;;;;;;13.07;11.57;;;17.50;99.90;;;;;;2080923;28;20440;-69
2021/09/09 02:32:34;;;;;;;14.20;12.80;;;17.50;99.90;;;;;;2081141;28;20037;-69
2021/09/09 02:33:35;;;;;;;12.32;11.15;;;17.40;99.90;;;;;;2079711;28;20405;-69
2021/09/09 02:34:36;;;;;;;15.50;13.32;;;17.40;99.90;;;;;;2084032;28;20065;-69
2021/09/09 02:35:36;;;;;;;14.10;12.70;;;17.40;99.90;;;;;;2085295;28;20025;-69
2021/09/09 02:36:37;;;;;;;13.05;11.48;;;17.40;99.90;;;;;;2085907;28;20059;-69
2021/09/09 02:37:38;;;;;;;12.73;11.52;;;17.40;99.90;;;;;;2085705;28;20164;-70
2021/09/09 02:38:38;;;;;;;13.85;11.55;;;17.40;99.90;;;;;;2093459;28;20036;-69
2021/09/09 02:39:42;;;;;;;13.25;11.75;;;17.40;99.90;;;;;;2084088;28;20402;-69
2021/09/09 02:40:43;;;;;;;12.30;11.10;;;17.40;99.90;;;;;;2087944;28;20024;-69
2021/09/09 02:41:43;;;;;;;13.50;12.18;;;17.40;99.90;;;;;;2082213;28;20053;-69
2021/09/09 02:42:44;;;;;;;13.52;12.15;;;17.30;99.90;;;;;;2083648;28;20060;-69
2021/09/09 02:43:44;;;;;;;13.02;11.55;;;17.30;99.90;;;;;;2080154;28;20021;-69
2021/09/09 02:44:45;;;;;;;13.52;12.13;;;17.30;99.90;;;;;;2079894;28;20101;-69
2021/09/09 02:45:46;;;;;;;12.88;11.57;;;17.30;99.90;;;;;;2082773;28;20025;-69
2021/09/09 02:46:46;;;;;;;12.52;11.23;;;17.30;99.90;;;;;;2087413;28;20108;-69
2021/09/09 02:47:47;;;;;;;13.05;11.75;;;17.30;99.90;;;;;;2081436;28;20033;-69
2021/09/09 02:48:47;;;;;;;13.15;11.60;;;17.30;99.90;;;;;;2079907;28;20029;-69
2021/09/09 02:49:48;;;;;;;13.45;12.07;;;17.20;99.90;;;;;;2079759;28;20462;-69
2021/09/09 02:50:48;;;;;;;13.25;11.90;;;17.20;99.90;;;;;;2079948;28;20500;-69
2021/09/09 02:51:49;;;;;;;13.43;12.02;;;17.20;99.90;;;;;;2083047;28;20025;-69
2021/09/09 02:52:50;;;;;;;12.13;10.93;;;17.20;99.90;;;;;;2080243;28;20037;-69
2021/09/09 02:53:50;;;;;;;13.20;11.77;;;17.20;99.90;;;;;;2082020;28;20029;-69
2021/09/09 02:54:51;;;;;;;13.45;12.18;;;17.20;99.90;;;;;;2079975;28;20374;-69
2021/09/09 02:55:51;;;;;;;14.10;12.43;;;17.20;99.90;;;;;;2079883;28;20049;-69
2021/09/09 02:56:52;;;;;;;13.52;12.20;;;17.20;99.90;;;;;;2078957;28;20031;-69
2021/09/09 02:57:52;;;;;;;14.50;13.00;;;17.10;99.90;;;;;;2079257;28;20029;-69
2021/09/09 02:58:53;;;;;;;14.32;12.57;;;17.10;99.90;;;;;;2079796;28;20282;-69
2021/09/09 02:59:54;;;;;;;15.40;12.50;;;17.10;99.90;;;;;;2079806;28;20122;-69
2021/09/09 03:00:54;;;;;;;13.75;12.35;;;17.10;99.90;;;;;;2079813;28;20057;-69
2021/09/09 03:01:55;;;;;;;12.77;11.48;;;17.10;99.90;;;;;;2080855;28;20059;-69
2021/09/09 03:02:55;;;;;;;12.05;10.82;;;17.10;99.90;;;;;;2079480;28;20094;-69
2021/09/09 03:03:56;;;;;;;12.43;11.27;;;17.00;99.90;;;;;;2079785;28;20030;-69
2021/09/09 03:04:56;;;;;;;14.50;11.70;;;17.00;99.90;;;;;;2079583;28;20017;-69
2021/09/09 03:05:57;;;;;;;14.43;12.82;;;17.00;99.90;;;;;;2080117;28;20033;-69
2021/09/09 03:06:57;;;;;;;12.85;11.65;;;17.00;99.90;;;;;;2080050;28;20049;-69
2021/09/09 03:07:58;;;;;;;13.10;11.70;;;17.00;99.90;;;;;;2080077;28;20108;-69
2021/09/09 03:08:59;;;;;;;13.23;11.85;;;17.00;99.90;;;;;;2079550;28;20067;-69
2021/09/09 03:09:59;;;;;;;14.63;12.38;;;17.00;99.90;;;;;;2080066;28;20057;-69
2021/09/09 03:11:00;;;;;;;13.57;11.88;;;17.00;99.90;;;;;;2083762;28;20013;-69
2021/09/09 03:12:00;;;;;;;13.77;12.43;;;16.90;99.90;;;;;;2086061;28;20044;-69
2021/09/09 03:13:01;;;;;;;13.80;12.45;;;16.90;99.90;;;;;;2087311;28;20029;-69
2021/09/09 03:14:01;;;;;;;14.15;12.80;;;16.90;99.90;;;;;;2079669;28;20037;-69
2021/09/09 03:15:02;;;;;;;13.40;11.82;;;16.90;99.90;;;;;;2079814;28;20057;-69
2021/09/09 03:16:03;;;;;;;12.65;11.35;;;16.90;99.90;;;;;;2080014;28;20485;-69
2021/09/09 03:17:04;;;;;;;13.20;11.90;;;16.90;99.90;;;;;;2078989;28;20029;-69
2021/09/09 03:18:05;;;;;;;14.48;12.30;;;16.90;99.90;;;;;;2079110;28;20017;-69
2021/09/09 03:19:05;;;;;;;13.68;11.32;;;16.90;99.90;;;;;;2079486;28;20534;-69
2021/09/09 03:20:06;;;;;;;14.10;12.70;;;16.90;99.90;;;;;;2079526;28;20021;-69
2021/09/09 03:21:07;;;;;;;13.80;12.40;;;16.80;99.90;;;;;;2083747;28;20025;-69
2021/09/09 03:22:08;;;;;;;13.95;12.55;;;16.80;99.90;;;;;;2079985;28;20025;-69
2021/09/09 03:23:08;;;;;;;12.77;11.57;;;16.80;99.90;;;;;;2079302;28;20196;-69
2021/09/09 03:24:09;;;;;;;12.63;11.35;;;16.80;99.90;;;;;;2079798;28;20079;-69
2021/09/09 03:25:10;;;;;;;12.63;11.32;;;16.80;99.90;;;;;;2079861;28;20450;-69
2021/09/09 03:26:11;;;;;;;12.35;10.95;;;16.80;99.90;;;;;;2079898;28;20018;-69
2021/09/09 03:27:11;;;;;;;12.75;11.50;;;16.80;99.90;;;;;;2079730;28;20101;-69
2021/09/09 03:28:12;;;;;;;14.30;12.13;;;16.80;99.90;;;;;;2079642;28;20043;-69
2021/09/09 03:29:13;;;;;;;13.52;11.77;;;16.70;99.90;;;;;;2079721;28;20040;-69
2021/09/09 03:30:14;;;;;;;14.10;12.70;;;16.70;99.90;;;;;;2079708;28;20389;-69
2021/09/09 03:31:14;;;;;;;13.68;12.38;;;16.70;99.90;;;;;;2081406;28;20091;-69
2021/09/09 03:32:15;;;;;;;13.25;12.10;;;16.70;99.90;;;;;;2079522;28;20049;-69
2021/09/09 03:33:15;;;;;;;14.02;12.50;;;16.70;99.90;;;;;;2079104;28;20442;-69
2021/09/09 03:34:16;;;;;;;13.57;12.27;;;16.70;99.90;;;;;;2080299;28;20025;-69
2021/09/09 03:35:17;;;;;;;14.18;12.73;;;16.70;99.90;;;;;;2087576;28;20068;-69
2021/09/09 03:36:17;;;;;;;14.90;12.38;;;16.70;99.90;;;;;;2088234;28;20021;-69
2021/09/09 03:37:18;;;;;;;13.48;12.27;;;16.60;99.90;;;;;;2085220;28;20484;-69
2021/09/09 03:38:18;;;;;;;13.55;11.65;;;16.60;99.90;;;;;;2087018;28;20103;-69
2021/09/09 03:39:19;;;;;;;13.30;11.88;;;16.60;99.90;;;;;;2086498;28;20433;-69
2021/09/09 03:40:20;;;;;;;12.80;11.60;;;16.60;99.90;;;;;;2086915;28;20032;-69
2021/09/09 03:41:21;;;;;;;12.98;11.25;;;16.60;99.90;;;;;;2088799;28;20100;-69
2021/09/09 03:42:22;;;;;;;13.77;12.40;;;16.60;99.90;;;;;;2088008;28;20475;-69
2021/09/09 03:43:22;;;;;;;13.48;11.90;;;16.60;99.90;;;;;;2080294;28;20022;-69
2021/09/09 03:44:23;;;;;;;13.80;12.40;;;16.60;99.90;;;;;;2080690;28;20033;-69
2021/09/09 03:45:23;;;;;;;12.57;11.48;;;16.60;99.90;;;;;;2088529;28;20056;-69
2021/09/09 03:46:24;;;;;;;14.52;12.65;;;16.60;99.90;;;;;;2081583;28;20399;-69
2021/09/09 03:47:24;;;;;;;13.95;12.45;;;16.60;99.90;;;;;;2084225;28;20055;-69
2021/09/09 03:48:26;;;;;;;13.20;11.82;;;16.50;99.90;;;;;;2087403;28;20025;-69
2021/09/09 03:49:26;;;;;;;15.75;11.57;;;16.60;99.90;;;;;;2083290;28;20473;-69
2021/09/09 03:50:27;;;;;;;14.20;12.32;;;16.50;99.90;;;;;;2081064;28;20464;-69
2021/09/09 03:51:28;;;;;;;12.57;11.30;;;16.50;99.90;;;;;;2087446;28;20033;-69
2021/09/09 03:52:28;;;;;;;13.20;11.95;;;16.50;99.90;;;;;;2084824;28;20095;-69
2021/09/09 03:53:29;;;;;;;13.00;11.70;;;16.50;99.90;;;;;;2081042;28;20057;-69
2021/09/09 03:54:29;;;;;;;13.35;11.98;;;16.50;99.90;;;;;;2081290;28;20056;-69
2021/09/09 03:55:30;;;;;;;13.55;11.88;;;16.50;99.90;;;;;;2081353;28;20482;-69
2021/09/09 03:56:30;;;;;;;14.00;12.60;;;16.50;99.90;;;;;;2080975;28;20026;-69
2021/09/09 03:57:31;;;;;;;13.95;12.10;;;16.50;99.90;;;;;;2081076;28;20048;-69
2021/09/09 03:58:32;;;;;;;13.90;12.40;;;16.50;99.90;;;;;;2081461;28;20533;-69
2021/09/09 03:59:32;;;;;;;13.20;11.80;;;16.40;99.90;;;;;;2081557;28;20458;-69
2021/09/09 04:00:33;;;;;;;12.38;11.18;;;16.40;99.90;;;;;;2081215;28;20056;-69
2021/09/09 04:01:33;;;;;;;13.50;12.13;;;16.40;99.90;;;;;;2087313;28;20409;-69
2021/09/09 04:02:34;;;;;;;14.32;11.98;;;16.40;99.90;;;;;;2081568;28;20100;-69
2021/09/09 04:03:35;;;;;;;14.07;12.35;;;16.40;99.90;;;;;;2081124;28;20161;-69
2021/09/09 04:04:35;;;;;;;13.70;12.30;;;16.40;99.90;;;;;;2081160;28;20631;-69
2021/09/09 04:05:36;;;;;;;13.18;11.95;;;16.40;99.90;;;;;;2081011;28;20075;-69
2021/09/09 04:06:36;;;;;;;16.25;13.15;;;16.30;99.90;;;;;;2080942;28;20446;-69
2021/09/09 04:07:37;;;;;;;14.85;12.30;;;16.40;99.90;;;;;;2081082;28;20021;-69
2021/09/09 04:08:37;;;;;;;13.43;12.13;;;16.40;99.90;;;;;;2081106;28;20053;-69
2021/09/09 04:09:38;;;;;;;14.05;12.77;;;16.30;99.90;;;;;;2080349;28;20022;-69
2021/09/09 04:10:38;;;;;;;13.95;12.65;;;16.30;99.90;;;;;;2080496;28;20055;-69
2021/09/09 04:11:39;;;;;;;13.18;11.80;;;16.30;99.90;;;;;;2086491;28;20049;-69
2021/09/09 04:12:39;;;;;;;14.43;12.82;;;16.30;99.90;;;;;;2080885;28;20486;-69
2021/09/09 04:13:40;;;;;;;13.93;12.48;;;16.30;99.90;;;;;;2080298;28;20053;-69
2021/09/09 04:14:41;;;;;;;13.15;11.80;;;16.30;99.90;;;;;;2080607;28;20115;-69
2021/09/09 04:15:41;;;;;;;13.25;11.18;;;16.30;99.90;;;;;;2081167;28;20060;-69
2021/09/09 04:16:42;;;;;;;14.90;13.43;;;16.30;99.90;;;;;;2080992;28;20032;-69
2021/09/09 04:17:43;;;;;;;14.48;13.07;;;16.30;99.90;;;;;;2081052;28;20022;-69
2021/09/09 04:18:43;;;;;;;15.65;13.80;;;16.30;99.90;;;;;;2080916;28;20033;-69
2021/09/09 04:19:44;;;;;;;14.07;12.50;;;16.20;99.90;;;;;;2080701;28;20079;-69
2021/09/09 04:20:44;;;;;;;15.05;13.48;;;16.20;99.90;;;;;;2080887;28;20500;-69
2021/09/09 04:21:45;;;;;;;14.18;12.57;;;16.20;99.90;;;;;;2084644;28;20072;-69
2021/09/09 04:22:46;;;;;;;14.90;11.95;;;16.20;99.90;;;;;;2080703;28;20029;-69
2021/09/09 04:23:46;;;;;;;15.48;13.27;;;16.20;99.90;;;;;;2080788;28;20041;-69
2021/09/09 04:24:47;;;;;;;15.20;12.60;;;16.20;99.90;;;;;;2080864;28;20053;-69
2021/09/09 04:25:47;;;;;;;15.40;12.30;;;16.20;99.90;;;;;;2080718;28;20052;-69
2021/09/09 04:26:48;;;;;;;14.32;12.85;;;16.20;99.90;;;;;;2081256;28;20053;-69
2021/09/09 04:27:49;;;;;;;13.75;12.45;;;16.20;99.90;;;;;;2080765;28;20446;-69
2021/09/09 04:28:49;;;;;;;13.27;11.88;;;16.20;99.90;;;;;;2081007;28;20025;-69
2021/09/09 04:29:51;;;;;;;14.88;13.38;;;16.10;99.90;;;;;;2079461;28;20032;-69
2021/09/09 04:30:51;;;;;;;15.05;13.07;;;16.20;99.90;;;;;;2079990;28;20041;-69
2021/09/09 04:31:52;;;;;;;13.70;12.15;;;16.10;99.90;;;;;;2081379;28;20033;-69
2021/09/09 04:32:53;;;;;;;14.05;12.65;;;16.10;99.90;;;;;;2079533;28;20104;-69
2021/09/09 04:33:53;;;;;;;17.50;13.07;;;16.10;99.90;;;;;;2080745;28;20044;-69
2021/09/09 04:34:54;;;;;;;13.50;12.20;;;16.10;99.90;;;;;;2086705;28;20658;-69
2021/09/09 04:35:54;;;;;;;12.88;11.45;;;16.10;99.90;;;;;;2088799;28;20032;-69
2021/09/09 04:36:55;;;;;;;14.05;12.52;;;16.10;99.90;;;;;;2088525;28;20033;-69
2021/09/09 04:37:56;;;;;;;14.30;12.77;;;16.10;99.90;;;;;;2088400;28;20116;-69
2021/09/09 04:38:56;;;;;;;15.20;13.65;;;16.10;99.90;;;;;;2088485;28;20059;-69
2021/09/09 04:39:57;;;;;;;15.32;12.63;;;16.10;99.90;;;;;;2088650;28;20029;-69
2021/09/09 04:40:58;;;;;;;15.40;11.85;;;16.10;99.90;;;;;;2089928;28;20057;-69
2021/09/09 04:41:58;;;;;;;13.80;12.23;;;16.10;99.90;;;;;;2088190;28;20067;-69
2021/09/09 04:42:59;;;;;;;14.27;12.88;;;16.00;99.90;;;;;;2081337;28;20072;-69
2021/09/09 04:43:59;;;;;;;14.55;12.95;;;16.00;99.90;;;;;;2079510;28;20025;-69
2021/09/09 04:45:00;;;;;;;14.38;13.07;;;16.00;99.90;;;;;;2083583;28;20040;-69
2021/09/09 04:46:01;;;;;;;14.98;12.15;;;16.00;99.90;;;;;;2083594;28;20033;-69
2021/09/09 04:47:02;;;;;;;13.93;12.48;;;16.00;99.90;;;;;;2080363;28;20018;-69
2021/09/09 04:48:03;;;;;;;13.82;12.38;;;16.00;99.90;;;;;;2080139;28;20694;-69
2021/09/09 04:49:04;;;;;;;14.05;12.70;;;16.00;99.90;;;;;;2080477;28;20105;-69
2021/09/09 04:50:06;;;;;;;13.35;12.05;;;16.00;99.90;;;;;;2080614;28;20022;-69
2021/09/09 04:51:06;;;;;;;14.57;13.10;;;16.00;99.90;;;;;;2081359;28;20017;-69
2021/09/09 04:52:07;;;;;;;15.15;12.60;;;16.00;99.90;;;;;;2086855;28;20103;-69
2021/09/09 04:53:08;;;;;;;14.10;12.68;;;16.00;99.90;;;;;;2079942;28;20075;-69
2021/09/09 04:54:09;;;;;;;14.20;12.80;;;16.00;99.90;;;;;;2079785;28;20459;-69
2021/09/09 04:55:10;;;;;;;14.65;12.77;;;16.00;99.90;;;;;;2079711;28;20775;-69
2021/09/09 04:56:10;;;;;;;15.57;13.98;;;16.00;99.90;;;;;;2080316;28;20440;-69
2021/09/09 04:57:12;;;;;;;14.00;12.50;;;16.00;99.90;;;;;;2080101;28;20104;-69
2021/09/09 04:58:13;;;;;;;13.75;12.45;;;16.00;99.90;;;;;;2080538;28;20018;-69
2021/09/09 04:59:14;;;;;;;16.67;14.45;;;16.00;99.90;;;;;;2080113;28;20462;-69
2021/09/09 05:00:14;;;;;;;14.60;13.20;;;15.90;99.90;;;;;;2080429;28;20396;-69
2021/09/09 05:01:15;;;;;;;14.45;13.07;;;16.00;99.90;;;;;;2081808;28;20021;-69
2021/09/09 05:02:15;;;;;;;16.08;12.55;;;15.90;99.90;;;;;;2074864;28;20057;-69
2021/09/09 05:03:16;;;;;;;14.40;12.88;;;15.90;99.90;;;;;;2078988;28;20429;-69
2021/09/09 05:04:18;;;;;;;14.40;12.98;;;15.90;99.90;;;;;;2079694;28;20028;-69
2021/09/09 05:05:19;;;;;;;15.82;12.90;;;15.90;99.90;;;;;;2079346;28;20018;-69
2021/09/09 05:06:19;;;;;;;14.50;13.20;;;15.90;99.90;;;;;;2080283;28;20021;-69
2021/09/09 05:07:20;;;;;;;17.40;12.73;;;15.90;99.90;;;;;;2080316;28;20021;-69
2021/09/09 05:08:20;;;;;;;14.18;12.88;;;15.90;99.90;;;;;;2080209;28;20056;-69
2021/09/09 05:09:21;;;;;;;15.38;13.63;;;15.90;99.90;;;;;;2080174;28;20026;-69